Time;durP1;ratioP1;P1;durP2;ratioP2;P2;SDS_P1;SDS_P2;PMS_P1;PMS_P2;Temp;Humidity;BMP_temperature;BMP_pressure;BME280_temperature;BME280_humidity;BME280_pressure;Samples;Min_cycle;Max_cycle;Signal;HPM_P1;HPM_P2
2022/09/14 00:02:10;;;;;;;5.65;3.12;;;;;;;11.72;94.16;99523.08;1708768;82;21477;-67
2022/09/14 00:04:40;;;;;;;5.12;3.60;;;;;;;11.69;94.26;99513.89;1708716;82;21144;-67
2022/09/14 00:07:10;;;;;;;6.55;3.72;;;;;;;11.71;94.34;99515.91;1708226;83;21192;-67
2022/09/14 00:09:39;;;;;;;5.92;3.55;;;;;;;11.72;94.40;99519.50;1697286;82;21188;-66
2022/09/14 00:12:09;;;;;;;6.03;3.60;;;;;;;11.71;94.41;99515.91;1707962;82;21137;-66
2022/09/14 00:14:40;;;;;;;8.25;4.30;;;;;;;11.70;94.44;99520.23;1704002;84;21125;-67
2022/09/14 00:17:10;;;;;;;8.78;4.05;;;;;;;11.69;94.59;99517.17;1704109;84;21629;-67
2022/09/14 00:19:39;;;;;;;5.85;4.20;;;;;;;11.71;94.70;99520.56;1705261;83;21212;-67
2022/09/14 00:22:09;;;;;;;5.17;4.03;;;;;;;11.69;94.74;99515.27;1705415;83;21112;-66
2022/09/14 00:24:39;;;;;;;5.30;3.83;;;;;;;11.71;94.84;99512.33;1705336;83;21188;-69
2022/09/14 00:27:09;;;;;;;5.87;3.77;;;;;;;11.71;94.92;99510.42;1704351;84;21542;-67
2022/09/14 00:29:39;;;;;;;7.15;3.98;;;;;;;11.71;94.97;99514.54;1704569;84;21172;-67
2022/09/14 00:32:09;;;;;;;4.75;3.75;;;;;;;11.74;95.01;99515.46;1703996;84;21196;-67
2022/09/14 00:34:43;;;;;;;6.37;3.55;;;;;;;11.73;94.90;99509.67;1704809;83;21176;-67
2022/09/14 00:37:13;;;;;;;8.58;4.08;;;;;;;11.72;94.90;99510.73;1705466;83;21172;-66
2022/09/14 00:39:42;;;;;;;6.40;3.85;;;;;;;11.74;94.98;99507.77;1705157;83;21117;-66
2022/09/14 00:42:15;;;;;;;5.85;3.47;;;;;;;11.77;94.95;99511.95;1704936;83;21152;-67
2022/09/14 00:44:53;;;;;;;6.15;3.58;;;;;;;11.79;94.91;99509.32;1705506;83;21581;-66
2022/09/14 00:47:24;;;;;;;5.40;3.35;;;;;;;11.80;94.78;99517.86;1705484;83;21105;-67
2022/09/14 00:49:54;;;;;;;5.70;3.75;;;;;;;11.83;94.75;99508.33;1704551;83;21176;-65
2022/09/14 00:52:28;;;;;;;7.05;3.67;;;;;;;11.83;94.79;99507.80;1704821;83;21160;-65
2022/09/14 00:55:05;;;;;;;7.70;3.55;;;;;;;11.86;94.87;99510.63;1705463;84;21567;-66
2022/09/14 00:57:43;;;;;;;4.37;3.33;;;;;;;11.86;94.69;99510.09;1705240;83;21228;-65
2022/09/14 01:00:13;;;;;;;;;;;;;;;11.86;94.63;99513.37;1698333;83;21207;-66
2022/09/14 01:02:43;;;;;;;4.95;3.25;;;;;;;11.86;94.68;99510.63;1705407;84;20161;-67
2022/09/14 01:05:13;;;;;;;4.70;3.45;;;;;;;11.88;94.72;99505.74;1705482;83;21160;-68
2022/09/14 01:08:00;;;;;;;7.75;3.27;;;;;;;11.91;94.64;99505.28;1705218;83;21145;-66
2022/09/14 01:11:00;;;;;;;6.35;3.15;;;;;;;11.91;94.63;99502.01;1705310;84;21101;-67
2022/09/14 01:13:53;;;;;;;5.75;3.37;;;;;;;11.93;94.48;99500.41;1640974;86;21219;-68
2022/09/14 01:17:04;;;;;;;4.35;3.10;;;;;;;11.90;94.35;99500.33;1627494;87;21135;-67
2022/09/14 01:20:04;;;;;;;6.28;3.47;;;;;;;11.90;94.36;99501.70;1668246;85;21597;-67
2022/09/14 01:22:57;;;;;;;4.17;2.98;;;;;;;11.89;94.35;99499.19;1658597;86;21155;-66
2022/09/14 01:25:59;;;;;;;3.87;3.12;;;;;;;11.88;94.31;99490.64;1628228;87;21201;-68
2022/09/14 01:28:51;;;;;;;5.15;2.90;;;;;;;11.86;94.31;99497.73;1656831;86;21591;-67
2022/09/14 01:31:35;;;;;;;4.78;3.05;;;;;;;11.85;94.23;99490.57;1664942;86;21162;-66
2022/09/14 01:34:31;;;;;;;3.60;3.08;;;;;;;11.83;94.33;99491.33;1654954;87;21185;-67
2022/09/14 01:37:17;;;;;;;10.40;3.45;;;;;;;11.82;94.31;99486.07;1665260;86;21678;-65
2022/09/14 01:39:54;;;;;;;4.83;3.08;;;;;;;11.81;94.37;99483.86;1654126;86;21193;-67
2022/09/14 01:42:23;;;;;;;5.70;2.92;;;;;;;11.82;94.42;99486.07;1654860;86;21186;-66
2022/09/14 01:44:56;;;;;;;4.75;3.10;;;;;;;11.84;94.46;99488.05;1654486;85;21125;-66
2022/09/14 01:47:39;;;;;;;4.10;3.20;;;;;;;11.86;94.55;99485.92;1654842;85;21666;-67
2022/09/14 01:50:19;;;;;;;5.05;3.00;;;;;;;11.87;94.61;99488.44;1664562;86;21158;-65
2022/09/14 01:52:59;;;;;;;5.20;3.20;;;;;;;11.89;94.72;99483.55;1681340;84;21179;-66
2022/09/14 01:55:52;;;;;;;3.90;3.10;;;;;;;11.91;94.64;99485.54;1709818;84;21202;-66
2022/09/14 01:58:27;;;;;;;3.58;3.02;;;;;;;11.90;94.60;99481.65;1654747;87;21146;-67
2022/09/14 02:00:56;;;;;;;4.12;3.12;;;;;;;11.91;94.69;99477.30;1665130;86;21654;-67
2022/09/14 02:03:30;;;;;;;6.47;3.33;;;;;;;11.94;94.80;99473.27;1665068;85;21206;-65
2022/09/14 02:06:28;;;;;;;6.45;3.87;;;;;;;11.95;94.66;99468.91;1681204;85;21557;-67
2022/09/14 02:08:59;;;;;;;4.67;3.10;;;;;;;11.95;94.69;99475.78;1709738;83;21111;-67
2022/09/14 02:11:30;;;;;;;4.50;3.27;;;;;;;11.97;94.69;99465.94;1683014;84;21161;-65
2022/09/14 02:13:59;;;;;;;3.10;2.75;;;;;;;11.97;94.61;99457.70;1660049;85;21230;-67
2022/09/14 02:16:29;;;;;;;5.22;3.10;;;;;;;11.98;94.50;99453.89;1644958;86;21190;-65
2022/09/14 02:19:00;;;;;;;3.33;2.83;;;;;;;11.98;94.40;99454.73;1672878;86;21221;-66
2022/09/14 02:21:31;;;;;;;4.40;2.87;;;;;;;11.96;94.16;99449.16;1673067;84;21146;-67
2022/09/14 02:24:01;;;;;;;4.05;3.02;;;;;;;11.98;94.16;99456.64;1648022;86;21114;-67
2022/09/14 02:26:30;;;;;;;3.27;2.80;;;;;;;11.98;94.04;99456.64;1660194;86;21595;-66
2022/09/14 02:29:00;;;;;;;5.30;3.10;;;;;;;11.97;93.94;99457.70;1644358;87;21138;-66
2022/09/14 02:31:40;;;;;;;4.45;2.85;;;;;;;11.99;93.97;99455.56;1622982;87;21138;-67
2022/09/14 02:34:38;;;;;;;3.77;2.60;;;;;;;11.99;93.87;99459.69;1644369;86;21206;-66
2022/09/14 02:37:35;;;;;;;4.28;2.70;;;;;;;11.98;93.79;99459.37;1644874;86;21640;-66
2022/09/14 02:40:37;;;;;;;3.25;2.45;;;;;;;11.99;93.77;99448.70;1622299;88;21650;-65
2022/09/14 02:43:45;;;;;;;5.03;3.17;;;;;;;12.00;93.72;99453.13;1657625;86;21156;-67
2022/09/14 02:46:25;;;;;;;4.08;2.80;;;;;;;11.99;93.65;99445.42;1660503;85;21230;-66
2022/09/14 02:49:17;;;;;;;5.05;3.20;;;;;;;12.00;93.65;99451.22;1657608;86;21182;-66
2022/09/14 02:52:04;;;;;;;4.67;2.70;;;;;;;11.99;93.65;99450.91;1644407;87;21215;-67
2022/09/14 02:54:39;;;;;;;3.60;2.83;;;;;;;11.99;93.47;99445.95;1636247;87;21146;-66
2022/09/14 02:57:10;;;;;;;4.72;2.80;;;;;;;11.98;93.43;99441.00;1644488;86;21103;-66
2022/09/14 02:59:41;;;;;;;3.95;2.75;;;;;;;11.99;93.45;99444.05;1672883;84;21141;-66
2022/09/14 03:02:11;;;;;;;4.12;2.80;;;;;;;11.99;93.41;99441.84;1647960;86;21131;-66
2022/09/14 03:04:42;;;;;;;3.25;2.50;;;;;;;11.99;93.27;99439.09;1661256;86;21672;-66
2022/09/14 03:07:11;;;;;;;3.00;2.65;;;;;;;11.98;93.22;99441.00;1658443;86;21191;-67
2022/09/14 03:09:40;;;;;;;4.97;2.90;;;;;;;11.99;93.23;99444.59;1660503;85;21198;-67
2022/09/14 03:12:11;;;;;;;4.47;2.83;;;;;;;11.97;93.14;99440.70;1635091;87;21194;-66
2022/09/14 03:14:40;;;;;;;4.25;3.15;;;;;;;11.97;93.11;99441.23;1669302;85;21142;-66
2022/09/14 03:17:11;;;;;;;4.33;3.10;;;;;;;11.95;93.02;99446.95;1684029;85;21512;-66
2022/09/14 03:19:41;;;;;;;3.58;2.72;;;;;;;11.93;92.87;99449.63;1703723;83;21176;-68
2022/09/14 03:22:11;;;;;;;4.12;2.90;;;;;;;11.89;92.88;99439.64;1704140;83;21105;-65
2022/09/14 03:24:41;;;;;;;4.45;3.10;;;;;;;11.86;92.98;99440.09;1704077;83;21149;-66
2022/09/14 03:27:10;;;;;;;4.22;3.00;;;;;;;11.87;93.06;99443.68;1704588;83;21189;-68
2022/09/14 03:29:40;;;;;;;5.47;3.20;;;;;;;11.87;93.16;99440.94;1704139;83;21117;-66
2022/09/14 03:32:12;;;;;;;5.28;2.80;;;;;;;11.88;93.13;99437.13;1704170;83;21132;-66
2022/09/14 03:34:42;;;;;;;4.42;3.30;;;;;;;11.89;93.17;99441.55;1704357;83;21152;-67
2022/09/14 03:37:27;;;;;;;6.03;2.87;;;;;;;11.89;93.15;99434.68;1704036;83;21181;-66
2022/09/14 03:39:56;;;;;;;3.70;2.80;;;;;;;11.88;93.16;99435.75;1704066;83;21169;-67
2022/09/14 03:42:28;;;;;;;4.67;2.60;;;;;;;11.88;93.17;99430.26;1704220;83;21173;-67
2022/09/14 03:44:58;;;;;;;4.12;2.50;;;;;;;11.88;93.07;99439.33;1704064;83;21212;-68
2022/09/14 03:47:28;;;;;;;4.87;2.85;;;;;;;11.89;92.86;99452.52;1694161;83;21578;-67
2022/09/14 03:49:57;;;;;;;4.45;2.70;;;;;;;11.88;92.76;99453.59;1704043;83;21153;-67
2022/09/14 03:52:26;;;;;;;3.58;2.55;;;;;;;11.87;92.67;99448.63;1693167;84;21144;-68
2022/09/14 03:54:55;;;;;;;4.70;2.65;;;;;;;11.84;92.43;99449.09;1704301;83;21541;-67
2022/09/14 03:57:25;;;;;;;3.50;2.40;;;;;;;11.84;92.32;99455.12;1704239;83;21211;-66
2022/09/14 03:59:55;;;;;;;2.65;2.30;;;;;;;11.85;92.23;99459.01;1704096;83;21571;-66
2022/09/14 04:02:24;;;;;;;3.22;2.50;;;;;;;11.87;92.07;99460.15;1724772;83;21118;-67
2022/09/14 04:04:53;;;;;;;2.98;2.40;;;;;;;11.87;91.93;99458.78;1704661;83;21141;-67
2022/09/14 04:07:23;;;;;;;4.40;2.37;;;;;;;11.86;91.76;99457.94;1703961;83;21176;-67
2022/09/14 04:09:52;;;;;;;3.33;2.33;;;;;;;11.86;91.53;99458.47;1703962;83;21208;-66
2022/09/14 04:12:23;;;;;;;3.15;2.30;;;;;;;11.87;91.48;99451.38;1704038;83;21129;-66
2022/09/14 04:14:52;;;;;;;3.15;2.27;;;;;;;11.88;91.50;99453.59;1697263;82;21554;-66
2022/09/14 04:17:23;;;;;;;3.83;2.67;;;;;;;11.90;91.49;99456.41;1681203;84;21135;-66
2022/09/14 04:19:53;;;;;;;4.65;2.42;;;;;;;11.93;91.42;99463.34;1666225;85;21212;-66
2022/09/14 04:22:24;;;;;;;3.80;2.47;;;;;;;11.95;91.31;99466.17;1695125;83;21562;-66
2022/09/14 04:24:53;;;;;;;5.28;2.33;;;;;;;11.97;91.13;99475.02;1686504;85;21129;-67
2022/09/14 04:27:23;;;;;;;3.20;2.22;;;;;;;11.99;90.83;99481.65;1681191;85;21142;-67
2022/09/14 04:29:52;;;;;;;2.92;2.47;;;;;;;11.97;90.54;99485.99;1666152;85;21183;-67
2022/09/14 04:32:21;;;;;;;4.62;2.45;;;;;;;11.97;90.43;99481.88;1662936;86;21618;-68
2022/09/14 04:34:51;;;;;;;5.45;2.27;;;;;;;11.98;90.29;99485.46;1674507;86;21158;-66
2022/09/14 04:37:21;;;;;;;3.20;2.20;;;;;;;12.01;90.26;99489.95;1674426;86;21194;-65
2022/09/14 04:39:50;;;;;;;4.45;2.60;;;;;;;12.04;90.09;99477.14;1700939;82;21624;-67
2022/09/14 04:42:19;;;;;;;3.02;2.10;;;;;;;12.07;89.94;99471.73;1710351;82;21147;-66
2022/09/14 04:44:49;;;;;;;3.80;2.30;;;;;;;12.09;89.93;99469.59;1687624;84;21122;-66
2022/09/14 04:47:19;;;;;;;5.67;2.33;;;;;;;12.13;89.81;99472.72;1666887;86;21177;-66
2022/09/14 04:49:48;;;;;;;5.55;2.70;;;;;;;12.17;89.78;99471.19;1665914;86;21248;-67
2022/09/14 04:52:18;;;;;;;4.03;2.90;;;;;;;12.22;89.52;99468.05;1662797;85;21165;-68
2022/09/14 04:54:47;;;;;;;5.08;2.50;;;;;;;12.25;89.43;99466.21;1674558;85;21206;-68
2022/09/14 04:57:16;;;;;;;5.28;3.62;;;;;;;12.29;89.38;99467.42;1674472;86;21217;-69
2022/09/14 04:59:45;;;;;;;5.12;2.92;;;;;;;12.33;89.31;99467.27;1665952;86;21145;-66
2022/09/14 05:02:15;;;;;;;4.10;2.85;;;;;;;12.42;89.38;99469.72;1666978;85;21137;-68
2022/09/14 05:04:45;;;;;;;5.60;3.67;;;;;;;12.45;89.08;99477.50;1665760;85;21461;-68
2022/09/14 05:07:14;;;;;;;3.87;3.33;;;;;;;12.47;88.76;99478.10;1663332;86;21146;-67
2022/09/14 05:09:44;;;;;;;2.95;2.20;;;;;;;12.47;88.42;99484.97;1674394;85;21127;-67
2022/09/14 05:12:15;;;;;;;6.67;2.35;;;;;;;12.47;88.13;99484.97;1674600;85;21166;-67
2022/09/14 05:14:44;;;;;;;2.98;2.12;;;;;;;12.45;87.74;99481.08;1671389;85;21166;-68
2022/09/14 05:17:14;;;;;;;3.47;2.58;;;;;;;12.42;87.40;99482.08;1695041;83;21600;-68
2022/09/14 05:19:44;;;;;;;4.37;2.47;;;;;;;12.40;87.14;99491.93;1675398;84;21661;-69
2022/09/14 05:22:14;;;;;;;4.83;2.70;;;;;;;12.37;87.04;99490.48;1695948;84;21121;-68
2022/09/14 05:24:43;;;;;;;3.30;2.60;;;;;;;12.37;87.10;99492.39;1703993;84;21619;-66
2022/09/14 05:27:13;;;;;;;3.22;2.50;;;;;;;12.40;87.17;99500.70;1694112;83;21156;-67
2022/09/14 05:29:42;;;;;;;6.03;2.50;;;;;;;12.43;86.98;99500.24;1705154;83;21141;-68
2022/09/14 05:32:12;;;;;;;3.50;2.98;;;;;;;12.42;86.75;99493.07;1705479;84;21565;-69
2022/09/14 05:34:41;;;;;;;3.70;2.77;;;;;;;12.44;86.72;99501.92;1704935;83;21113;-67
2022/09/14 05:37:11;;;;;;;4.03;3.00;;;;;;;12.45;86.55;99499.48;1705262;83;21211;-67
2022/09/14 05:39:41;;;;;;;3.30;2.87;;;;;;;12.48;86.67;99490.77;1705339;83;21137;-65
2022/09/14 05:42:11;;;;;;;3.02;2.55;;;;;;;12.53;86.64;99491.75;1705355;83;21197;-67
2022/09/14 05:44:41;;;;;;;4.70;2.95;;;;;;;12.61;86.36;99490.05;1704880;83;21180;-68
2022/09/14 05:47:11;;;;;;;3.67;2.77;;;;;;;12.63;86.03;99489.28;1705238;83;21132;-68
2022/09/14 05:49:41;;;;;;;3.25;2.62;;;;;;;12.64;85.53;99490.11;1705587;83;21549;-67
2022/09/14 05:52:11;;;;;;;3.80;2.90;;;;;;;12.66;85.54;99494.30;1705298;83;21169;-69
2022/09/14 05:54:40;;;;;;;7.35;3.20;;;;;;;12.71;85.36;99497.73;1705280;83;21264;-68
2022/09/14 05:57:10;;;;;;;4.70;2.70;;;;;;;12.76;85.17;99492.36;1704611;83;21128;-67
2022/09/14 05:59:40;;;;;;;7.20;3.10;;;;;;;12.79;84.91;99489.15;1705294;83;21133;-68
2022/09/14 06:02:10;;;;;;;6.45;3.10;;;;;;;12.81;84.72;99491.13;1705522;83;21168;-68
2022/09/14 06:04:42;;;;;;;4.65;3.05;;;;;;;12.85;84.52;99489.58;1705203;83;21358;-65
2022/09/14 06:07:11;;;;;;;4.90;2.87;;;;;;;12.89;83.80;99484.45;1704579;83;21222;-69
2022/09/14 06:09:42;;;;;;;5.25;2.62;;;;;;;12.91;83.83;99484.52;1704508;83;21185;-67
2022/09/14 06:12:13;;;;;;;5.85;2.83;;;;;;;12.96;83.59;99487.41;1705157;83;21160;-69
2022/09/14 06:14:43;;;;;;;3.25;2.50;;;;;;;13.03;83.32;99478.23;1706284;84;21145;-68
2022/09/14 06:17:12;;;;;;;4.97;3.00;;;;;;;13.06;83.07;99480.52;1708362;82;21132;-67
2022/09/14 06:19:42;;;;;;;3.58;2.90;;;;;;;13.11;83.20;99480.11;1707129;82;21201;-68
2022/09/14 06:22:12;;;;;;;9.23;3.27;;;;;;;13.17;83.29;99472.85;1708477;82;21212;-71
2022/09/14 06:24:42;;;;;;;6.03;3.58;;;;;;;13.21;83.09;99475.42;1697665;82;21168;-69
2022/09/14 06:27:12;;;;;;;5.62;3.47;;;;;;;13.25;83.15;99477.47;1708823;82;21887;-69
2022/09/14 06:29:43;;;;;;;6.83;3.33;;;;;;;13.30;83.02;99475.37;1708620;84;21560;-68
2022/09/14 06:32:12;;;;;;;6.72;3.37;;;;;;;13.35;82.73;99479.62;1708714;82;21574;-69
2022/09/14 06:34:45;;;;;;;4.87;3.40;;;;;;;13.33;82.55;99475.73;1708585;82;21188;-68
2022/09/14 06:37:14;;;;;;;5.47;3.40;;;;;;;13.31;82.24;99479.80;1708648;82;21584;-68
2022/09/14 06:39:44;;;;;;;5.80;3.02;;;;;;;13.32;82.14;99479.56;1708177;82;21164;-69
2022/09/14 06:42:14;;;;;;;8.45;4.58;;;;;;;13.35;81.79;99471.91;1708554;82;21164;-67
2022/09/14 06:44:48;;;;;;;6.17;2.83;;;;;;;13.33;81.74;99469.39;1697217;82;21609;-68
2022/09/14 06:47:17;;;;;;;6.53;3.30;;;;;;;13.36;82.00;99459.83;1708551;82;21203;-69
2022/09/14 06:49:48;;;;;;;3.77;2.80;;;;;;;13.42;82.26;99464.38;1708332;82;21203;-69
2022/09/14 06:52:20;;;;;;;4.37;2.90;;;;;;;13.50;82.19;99452.47;1708537;82;21164;-68
2022/09/14 06:54:50;;;;;;;4.83;3.22;;;;;;;13.54;81.68;99461.08;1707741;82;21132;-68
2022/09/14 06:57:19;;;;;;;5.58;3.00;;;;;;;13.60;81.63;99455.45;1708542;82;21164;-69
2022/09/14 06:59:49;;;;;;;4.50;2.85;;;;;;;13.69;81.39;99460.08;1708311;82;21616;-67
2022/09/14 07:02:18;;;;;;;3.92;3.00;;;;;;;13.76;81.24;99459.95;1708333;82;21541;-70
2022/09/14 07:04:47;;;;;;;6.15;3.02;;;;;;;13.87;81.02;99460.48;1707335;82;21746;-68
2022/09/14 07:07:19;;;;;;;6.17;2.90;;;;;;;13.93;79.94;99458.13;1708705;83;21156;-69
2022/09/14 07:09:53;;;;;;;6.17;2.98;;;;;;;14.00;79.79;99455.24;1708784;84;21176;-69
2022/09/14 07:12:23;;;;;;;5.33;3.50;;;;;;;14.07;79.62;99441.62;1708729;83;21132;-69
2022/09/14 07:14:57;;;;;;;4.37;3.30;;;;;;;14.16;79.33;99448.43;1706901;82;21196;-68
2022/09/14 07:17:26;;;;;;;3.75;3.05;;;;;;;14.23;78.82;99447.74;1705965;83;21168;-69
2022/09/14 07:19:55;;;;;;;8.38;3.17;;;;;;;14.29;77.95;99450.06;1706196;83;21204;-68
2022/09/14 07:22:25;;;;;;;4.08;2.80;;;;;;;14.28;77.03;99440.95;1705141;83;21215;-68
2022/09/14 07:24:54;;;;;;;6.20;3.40;;;;;;;14.26;76.64;99444.50;1705139;83;21157;-68
2022/09/14 07:27:23;;;;;;;4.17;3.25;;;;;;;14.28;76.30;99445.09;1704806;83;21157;-67
2022/09/14 07:29:53;;;;;;;3.02;2.33;;;;;;;14.33;76.03;99446.30;1703953;83;21204;-67
2022/09/14 07:32:23;;;;;;;3.10;2.50;;;;;;;14.37;75.53;99445.57;1705287;83;21144;-67
2022/09/14 07:34:52;;;;;;;4.37;3.17;;;;;;;14.43;75.37;99443.78;1705446;83;21137;-68
2022/09/14 07:37:21;;;;;;;4.40;3.20;;;;;;;14.47;74.91;99436.69;1704720;83;21136;-67
2022/09/14 07:39:51;;;;;;;4.15;2.50;;;;;;;14.50;74.74;99441.71;1704884;83;21549;-72
2022/09/14 07:42:20;;;;;;;3.33;2.37;;;;;;;14.52;74.43;99442.30;1704487;83;21614;-67
2022/09/14 07:44:49;;;;;;;3.08;2.17;;;;;;;14.54;73.61;99437.37;1705013;83;21164;-69
2022/09/14 07:47:18;;;;;;;4.08;2.20;;;;;;;14.54;72.55;99442.34;1705388;84;21272;-70
2022/09/14 07:49:51;;;;;;;2.60;1.98;;;;;;;14.60;72.97;99440.52;1704097;83;21192;-69
2022/09/14 07:52:33;;;;;;;3.83;2.17;;;;;;;14.82;72.92;99438.72;1704148;83;21175;-69
2022/09/14 07:55:11;;;;;;;4.17;2.10;;;;;;;15.22;72.37;99428.94;1704437;83;21247;-68
2022/09/14 07:57:46;;;;;;;8.40;4.03;;;;;;;15.72;70.69;99430.01;1704703;83;21314;-69
2022/09/14 08:00:20;;;;;;;4.83;2.58;;;;;;;16.07;68.68;99421.34;1703704;83;21189;-67
2022/09/14 08:02:54;;;;;;;2.85;2.45;;;;;;;16.30;67.94;99421.66;1701541;83;21139;-70
2022/09/14 08:05:24;;;;;;;3.75;2.17;;;;;;;16.47;67.48;99424.61;1702896;84;21152;-70
2022/09/14 08:07:56;;;;;;;3.75;2.12;;;;;;;16.62;67.07;99411.48;1700612;83;21162;-70
2022/09/14 08:10:27;;;;;;;5.17;2.50;;;;;;;16.72;65.46;99410.23;1704858;83;21168;-70
2022/09/14 08:12:57;;;;;;;3.02;2.10;;;;;;;16.75;64.91;99412.48;1705036;83;21603;-68
2022/09/14 08:15:27;;;;;;;1.72;1.62;;;;;;;16.83;64.92;99408.40;1706260;83;21152;-69
2022/09/14 08:17:58;;;;;;;2.98;1.80;;;;;;;16.94;64.13;99407.42;1708467;82;21208;-72
2022/09/14 08:20:28;;;;;;;1.87;1.62;;;;;;;17.04;63.24;99408.89;1710399;82;21169;-70
2022/09/14 08:22:59;;;;;;;3.37;1.70;;;;;;;17.16;61.53;99406.48;1722663;80;21207;-74
2022/09/14 08:25:29;;;;;;;6.87;2.02;;;;;;;17.26;60.76;99405.18;1674541;85;21176;-72
2022/09/14 08:27:59;;;;;;;3.80;2.00;;;;;;;17.29;59.78;99405.48;1678302;84;21326;-72
2022/09/14 08:30:28;;;;;;;4.83;2.60;;;;;;;17.27;59.07;99402.70;1678564;84;21249;-73
2022/09/14 08:32:57;;;;;;;4.47;2.00;;;;;;;17.26;58.46;99401.86;1678296;84;21162;-73
2022/09/14 08:35:28;;;;;;;3.05;1.70;;;;;;;17.26;57.86;99387.19;1678536;83;21153;-72
2022/09/14 08:37:59;;;;;;;3.20;1.77;;;;;;;17.35;58.06;99384.20;1682068;84;21573;-71
2022/09/14 08:40:29;;;;;;;5.55;2.10;;;;;;;17.54;58.52;99381.82;1678705;84;21197;-72
2022/09/14 08:42:57;;;;;;;2.87;1.57;;;;;;;17.89;57.95;99373.75;1678800;84;21114;-72
2022/09/14 08:45:26;;;;;;;6.28;1.87;;;;;;;18.22;57.07;99380.00;1678591;85;21580;-73
2022/09/14 08:47:55;;;;;;;3.05;1.77;;;;;;;18.47;55.10;99384.77;1667923;84;21193;-73
2022/09/14 08:50:23;;;;;;;5.35;1.90;;;;;;;18.55;55.01;99390.61;1656588;85;21133;-74
2022/09/14 08:52:52;;;;;;;3.25;2.22;;;;;;;18.61;54.28;99386.77;1656924;84;21597;-74
2022/09/14 08:55:44;;;;;;;2.55;1.70;;;;;;;18.59;53.65;99386.19;1678637;84;21617;-73
2022/09/14 08:58:36;;;;;;;8.78;5.72;;;;;;;18.47;53.42;99383.39;1678303;84;21130;-74
2022/09/14 09:01:18;;;;;;;6.90;4.25;;;;;;;18.26;54.24;99383.89;1680358;83;21129;-75
2022/09/14 09:04:37;;;;;;;4.90;3.00;;;;;;;18.03;55.56;99376.86;1678545;84;21177;-76
2022/09/14 09:07:16;;;;;;;;;;;;;;;17.83;57.16;99372.06;1680611;84;21169;-74
2022/09/14 09:09:51;;;;;;;4.22;1.80;;;;;;;17.65;57.36;99368.34;1678791;84;20238;-75
2022/09/14 09:12:25;;;;;;;4.30;1.97;;;;;;;17.54;57.60;99362.44;1661908;84;21105;-73
2022/09/14 09:14:57;;;;;;;3.67;1.70;;;;;;;17.49;57.34;99363.80;1706820;82;21152;-73
2022/09/14 09:17:33;;;;;;;3.27;1.98;;;;;;;17.41;56.47;99360.98;1694521;84;21576;-73
2022/09/14 09:20:22;;;;;;;2.00;1.70;;;;;;;17.32;56.75;99364.80;1675383;84;21138;-69
2022/09/14 09:23:11;;;;;;;3.85;1.82;;;;;;;17.25;57.15;99372.51;1695822;83;21607;-67
2022/09/14 09:26:01;;;;;;;4.60;2.12;;;;;;;17.12;57.28;99363.28;1693342;83;21604;-69
2022/09/14 09:28:30;;;;;;;2.30;1.45;;;;;;;16.97;57.92;99371.47;1699648;83;21132;-69
2022/09/14 09:31:03;;;;;;;3.05;2.20;;;;;;;16.83;59.17;99375.20;1650834;85;21170;-69
2022/09/14 09:33:34;;;;;;;4.03;1.95;;;;;;;16.79;59.65;99379.59;1675981;84;21586;-72
2022/09/14 09:36:08;;;;;;;2.50;2.10;;;;;;;16.73;59.80;99388.39;1687107;83;21569;-70
2022/09/14 09:38:38;;;;;;;2.12;1.90;;;;;;;16.68;60.15;99388.89;1682771;83;21168;-70
2022/09/14 09:41:21;;;;;;;2.80;1.80;;;;;;;16.60;60.30;99387.41;1695366;83;21192;-69
2022/09/14 09:44:01;;;;;;;3.15;2.00;;;;;;;16.52;60.10;99386.50;1694785;84;21191;-68
2022/09/14 09:46:33;;;;;;;3.98;2.92;;;;;;;16.43;60.15;99390.83;1662329;86;21158;-67
2022/09/14 09:49:06;;;;;;;3.75;1.90;;;;;;;16.32;60.47;99387.12;1675122;84;21142;-69
2022/09/14 09:51:35;;;;;;;2.47;1.70;;;;;;;16.24;60.69;99390.87;1693912;83;21096;-69
2022/09/14 09:54:12;;;;;;;9.15;2.92;;;;;;;16.16;60.80;99392.16;1674226;84;21633;-70
2022/09/14 09:56:54;;;;;;;2.95;2.47;;;;;;;16.10;61.10;99386.30;1666555;84;21169;-70
2022/09/14 09:59:39;;;;;;;2.77;1.90;;;;;;;16.06;61.47;99390.66;1684196;85;21179;-68
2022/09/14 10:02:30;;;;;;;7.50;2.27;;;;;;;16.03;62.22;99385.66;1677133;84;21190;-70
2022/09/14 10:05:07;;;;;;;4.33;2.20;;;;;;;16.01;62.54;99383.70;1694176;83;21151;-69
2022/09/14 10:07:57;;;;;;;5.33;2.37;;;;;;;15.99;62.80;99379.81;1664845;84;21173;-67
2022/09/14 10:10:38;;;;;;;6.87;2.40;;;;;;;15.98;63.01;99385.59;1694854;83;21168;-69
2022/09/14 10:13:28;;;;;;;4.30;2.00;;;;;;;15.96;62.91;99374.80;1703782;83;21105;-68
2022/09/14 10:16:16;;;;;;;4.28;2.20;;;;;;;15.94;63.02;99378.37;1705918;83;21172;-68
2022/09/14 10:18:49;;;;;;;4.37;2.30;;;;;;;15.92;62.57;99381.09;1708021;82;21140;-69
2022/09/14 10:21:22;;;;;;;6.20;2.65;;;;;;;15.89;62.91;99373.33;1715283;82;21144;-68
2022/09/14 10:24:20;;;;;;;4.95;2.58;;;;;;;15.89;63.33;99374.16;1708015;82;21175;-70
2022/09/14 10:26:50;;;;;;;3.80;2.30;;;;;;;15.90;63.61;99376.37;1707928;82;21168;-68
2022/09/14 10:29:42;;;;;;;5.50;2.47;;;;;;;15.91;63.53;99373.36;1687380;84;21528;-70
2022/09/14 10:32:18;;;;;;;6.40;2.62;;;;;;;15.91;63.54;99378.05;1686713;84;21191;-68
2022/09/14 10:34:50;;;;;;;3.85;2.70;;;;;;;15.90;63.81;99374.45;1708388;82;21129;-67
2022/09/14 10:37:36;;;;;;;4.60;2.45;;;;;;;15.90;63.83;99378.59;1686228;82;21124;-69
2022/09/14 10:40:15;;;;;;;4.80;2.55;;;;;;;15.92;64.22;99376.95;1692869;84;21199;-74
2022/09/14 10:43:12;;;;;;;3.47;2.30;;;;;;;15.93;64.60;99373.94;1708304;82;21588;-68
2022/09/14 10:45:51;;;;;;;5.03;2.70;;;;;;;15.96;64.79;99377.56;1659177;85;21144;-68
2022/09/14 10:48:45;;;;;;;5.08;2.50;;;;;;;15.98;65.58;99378.14;1699606;82;21168;-67
2022/09/14 10:51:43;;;;;;;3.62;2.70;;;;;;;15.99;65.95;99370.14;1702969;82;21222;-67
2022/09/14 10:54:18;;;;;;;5.12;2.90;;;;;;;16.01;67.11;99372.09;1706420;82;21131;-67
2022/09/14 10:57:18;;;;;;;3.20;2.40;;;;;;;15.97;67.87;99365.97;1682463;85;21142;-66
2022/09/14 10:59:55;;;;;;;5.87;2.90;;;;;;;15.96;68.78;99368.44;1659543;84;21149;-67
2022/09/14 11:02:53;;;;;;;5.28;2.45;;;;;;;15.95;69.03;99361.24;1702803;82;21129;-66
2022/09/14 11:05:46;;;;;;;3.27;2.75;;;;;;;15.92;69.24;99353.48;1708341;82;21196;-69
2022/09/14 11:08:38;;;;;;;3.83;3.00;;;;;;;15.91;69.50;99355.95;1692466;84;21129;-67
2022/09/14 11:11:26;;;;;;;4.65;3.20;;;;;;;15.92;70.16;99352.92;1700892;84;21179;-68
2022/09/14 11:14:32;;;;;;;5.12;3.00;;;;;;;15.95;70.96;99349.65;1707869;82;21161;-67
2022/09/14 11:17:16;;;;;;;4.15;3.10;;;;;;;15.99;71.27;99350.80;1699243;82;21142;-69
2022/09/14 11:20:25;;;;;;;3.75;2.60;;;;;;;16.03;71.91;99346.42;1694860;84;21170;-72
2022/09/14 11:23:45;;;;;;;3.98;3.00;;;;;;;16.08;71.74;99338.19;1683897;85;21184;-71
2022/09/14 11:26:32;;;;;;;3.98;2.72;;;;;;;16.13;71.85;99339.63;1673875;85;21259;-71
2022/09/14 11:29:22;;;;;;;6.45;2.92;;;;;;;16.20;71.79;99338.59;1657378;86;21117;-71
2022/09/14 11:31:59;;;;;;;7.22;4.10;;;;;;;16.22;71.59;99333.63;1667113;86;21144;-71
2022/09/14 11:34:54;;;;;;;8.10;3.55;;;;;;;16.28;72.15;99342.30;1691528;83;21101;-70
2022/09/14 11:37:40;;;;;;;5.72;3.80;;;;;;;16.35;72.83;99341.54;1674360;85;21139;-69
2022/09/14 11:40:38;;;;;;;6.08;4.50;;;;;;;16.39;73.26;99339.92;1665599;86;21144;-71
2022/09/14 11:43:48;;;;;;;5.25;3.50;;;;;;;16.44;73.67;99339.97;1652838;86;21203;-70
2022/09/14 11:46:25;;;;;;;5.00;4.05;;;;;;;16.45;73.78;99327.81;1666353;86;21194;-72
2022/09/14 11:49:00;;;;;;;5.97;4.10;;;;;;;16.46;74.01;99331.70;1666316;85;21152;-70
2022/09/14 11:51:36;;;;;;;5.85;4.78;;;;;;;16.45;73.90;99329.20;1662540;85;21308;-69
2022/09/14 11:54:15;;;;;;;5.40;4.20;;;;;;;16.45;74.22;99329.20;1674453;84;21182;-71
2022/09/14 11:56:54;;;;;;;8.48;4.80;;;;;;;16.45;74.17;99325.88;1669348;86;21161;-70
2022/09/14 11:59:47;;;;;;;8.43;5.22;;;;;;;16.42;74.23;99325.58;1674451;85;21610;-68
2022/09/14 12:02:28;;;;;;;8.03;4.58;;;;;;;16.41;74.46;99330.81;1663099;85;21141;-70
2022/09/14 12:05:09;;;;;;;5.30;4.37;;;;;;;16.36;74.73;99335.75;1667083;86;21188;-71
2022/09/14 12:07:50;;;;;;;6.00;4.40;;;;;;;16.36;75.26;99332.15;1657046;86;21133;-69
2022/09/14 12:10:20;;;;;;;8.60;4.47;;;;;;;16.35;75.42;99327.17;1666200;86;21140;-70
2022/09/14 12:13:07;;;;;;;6.90;4.78;;;;;;;16.34;75.69;99325.50;1695059;85;21236;-69
2022/09/14 12:15:39;;;;;;;5.42;4.05;;;;;;;16.34;75.72;99326.88;1692208;83;21239;-70